createdAt,value
2018-06-23T00:00:55.639Z,12.13
2018-06-23T00:03:24.432Z,12.13
2018-06-23T00:05:53.241Z,11.81
2018-06-23T00:08:22.032Z,12.15
2018-06-23T00:10:50.813Z,12.03
2018-06-23T00:13:19.567Z,11.82
2018-06-23T00:15:48.417Z,12.00
2018-06-23T00:18:17.273Z,11.86
2018-06-23T00:20:46.093Z,12.24
2018-06-23T00:23:14.863Z,11.82
2018-06-23T00:25:48.736Z,11.96
2018-06-23T00:28:17.514Z,11.93
2018-06-23T00:30:46.337Z,11.79
2018-06-23T00:33:15.101Z,11.79
2018-06-23T00:35:43.906Z,11.86
2018-06-23T00:38:12.734Z,11.87
2018-06-23T00:40:41.522Z,11.92
2018-06-23T00:43:10.306Z,11.87
2018-06-23T00:45:39.111Z,11.90
2018-06-23T00:48:07.889Z,11.76
2018-06-23T00:50:36.698Z,11.72
2018-06-23T00:53:05.655Z,11.79
2018-06-23T00:55:34.425Z,11.87
2018-06-23T00:58:03.330Z,11.88
2018-06-23T01:00:32.150Z,11.89
2018-06-23T01:03:00.953Z,11.88
2018-06-23T01:05:29.714Z,11.90
2018-06-23T01:07:58.526Z,11.91
2018-06-23T01:10:27.372Z,11.92
2018-06-23T01:12:56.146Z,12.13
2018-06-23T01:15:25.008Z,11.96
2018-06-23T01:17:53.815Z,11.97
2018-06-23T01:20:22.597Z,11.79
2018-06-23T01:22:51.386Z,11.96
2018-06-23T01:25:20.188Z,11.93
2018-06-23T01:27:49.074Z,11.91
2018-06-23T01:30:17.874Z,11.92
2018-06-23T01:32:46.658Z,11.95
2018-06-23T01:35:15.460Z,11.81
2018-06-23T01:37:44.307Z,11.82
2018-06-23T01:40:13.561Z,11.78
2018-06-23T01:42:42.387Z,11.69
2018-06-23T01:45:11.205Z,11.75
2018-06-23T01:47:40.008Z,11.75
2018-06-23T01:50:08.838Z,11.87
2018-06-23T01:52:37.631Z,11.99
2018-06-23T01:55:06.493Z,11.79
2018-06-23T01:57:35.317Z,11.73
2018-06-23T02:00:04.170Z,11.82
2018-06-23T02:02:33.515Z,11.75
2018-06-23T02:05:02.303Z,11.85
2018-06-23T02:07:31.142Z,11.87
2018-06-23T02:09:59.957Z,11.78
2018-06-23T02:12:28.753Z,11.74
2018-06-23T02:15:03.830Z,11.92
2018-06-23T02:17:37.743Z,11.92
2018-06-23T02:20:11.645Z,11.65
2018-06-23T02:22:45.582Z,11.79
2018-06-23T02:25:19.457Z,11.69
2018-06-23T02:27:53.405Z,11.78
2018-06-23T02:30:36.584Z,11.89
2018-06-23T02:33:10.519Z,11.69
2018-06-23T02:35:39.311Z,11.68
2018-06-23T02:38:08.137Z,11.70
2018-06-23T02:40:36.926Z,11.70
2018-06-23T02:43:05.828Z,11.86
2018-06-23T02:45:35.564Z,11.83
2018-06-23T02:48:04.379Z,11.87
2018-06-23T02:50:33.176Z,11.85
2018-06-23T02:53:02.021Z,12.12
2018-06-23T02:55:30.827Z,12.30
2018-06-23T02:57:59.622Z,12.35
2018-06-23T03:00:28.389Z,12.28
2018-06-23T03:02:57.840Z,12.15
2018-06-23T03:05:26.662Z,12.16
2018-06-23T03:07:55.459Z,12.16
2018-06-23T03:10:24.245Z,12.11
2018-06-23T03:12:53.097Z,12.05
2018-06-23T03:15:21.947Z,12.02
2018-06-23T03:17:50.730Z,12.01
2018-06-23T03:20:19.619Z,12.02
2018-06-23T03:22:48.425Z,12.01
2018-06-23T03:25:17.188Z,12.06
2018-06-23T03:27:45.977Z,11.94
2018-06-23T03:30:14.725Z,11.97
2018-06-23T03:32:43.530Z,12.00
2018-06-23T03:35:12.323Z,12.03
2018-06-23T03:37:41.114Z,12.08
2018-06-23T03:40:09.951Z,12.09
2018-06-23T03:42:38.741Z,12.01
2018-06-23T03:45:07.566Z,11.99
2018-06-23T03:47:36.360Z,12.00
2018-06-23T03:50:05.562Z,12.13
2018-06-23T03:52:34.341Z,12.11
2018-06-23T03:55:03.186Z,12.12
2018-06-23T03:57:31.928Z,12.10
2018-06-23T04:00:00.685Z,12.04
2018-06-23T04:02:29.601Z,12.08
2018-06-23T04:04:58.414Z,12.07
2018-06-23T04:07:27.192Z,11.94
2018-06-23T04:09:55.969Z,11.89
2018-06-23T04:12:24.749Z,11.95
2018-06-23T04:14:53.626Z,11.81
2018-06-23T04:17:22.418Z,11.81
2018-06-23T04:19:51.210Z,11.81
2018-06-23T04:22:19.993Z,11.93
2018-06-23T04:24:48.774Z,11.86
2018-06-23T04:27:17.597Z,11.88
2018-06-23T04:29:46.358Z,11.84
2018-06-23T04:32:15.381Z,11.97
2018-06-23T04:34:44.159Z,11.93
2018-06-23T04:37:12.961Z,11.95
2018-06-23T04:39:41.761Z,11.84
2018-06-23T04:42:10.578Z,11.92
2018-06-23T04:44:39.450Z,11.90
2018-06-23T04:47:08.202Z,11.90
2018-06-23T04:49:37.075Z,11.97
2018-06-23T04:52:05.897Z,12.02
2018-06-23T04:54:34.733Z,12.01
2018-06-23T04:57:04.038Z,11.99
2018-06-23T04:59:32.794Z,12.01
2018-06-23T05:02:01.624Z,12.14
2018-06-23T05:04:30.462Z,12.08
2018-06-23T05:06:59.237Z,12.11
2018-06-23T05:09:28.099Z,12.20
2018-06-23T05:11:56.926Z,12.11
2018-06-23T05:14:25.748Z,12.05
2018-06-23T05:16:54.587Z,12.07
2018-06-23T05:19:23.401Z,12.16
2018-06-23T05:21:52.215Z,12.15
2018-06-23T05:24:21.046Z,12.10
2018-06-23T05:26:49.849Z,12.23
2018-06-23T05:29:18.611Z,12.26
2018-06-23T05:31:47.450Z,12.21
2018-06-23T05:34:16.334Z,12.21
2018-06-23T05:36:45.135Z,12.16
2018-06-23T05:39:13.930Z,12.05
2018-06-23T05:41:42.805Z,12.26
2018-06-23T05:44:12.466Z,12.26
2018-06-23T05:46:41.284Z,12.28
2018-06-23T05:49:10.038Z,12.28
2018-06-23T05:51:38.829Z,12.24
2018-06-23T05:54:07.640Z,12.27
2018-06-23T05:56:36.399Z,12.32
2018-06-23T05:59:05.317Z,12.36
2018-06-23T06:01:34.216Z,12.31
2018-06-23T06:04:02.989Z,12.33
2018-06-23T06:06:31.801Z,12.42
2018-06-23T06:09:00.561Z,12.37
2018-06-23T06:11:29.370Z,12.23
2018-06-23T06:13:58.187Z,12.28
2018-06-23T06:17:32.123Z,12.38
2018-06-23T06:20:02.106Z,12.44
2018-06-23T06:22:32.020Z,12.45
2018-06-23T06:25:00.920Z,12.46
2018-06-23T06:27:29.713Z,12.48
2018-06-23T06:29:59.016Z,12.49
2018-06-23T06:32:28.213Z,12.53
2018-06-23T06:34:57.137Z,12.48
2018-06-23T06:37:25.936Z,12.46
2018-06-23T06:39:55.055Z,12.48
2018-06-23T06:42:23.845Z,12.49
2018-06-23T06:44:52.625Z,12.41
2018-06-23T06:47:21.504Z,12.35
2018-06-23T06:49:50.302Z,12.45
2018-06-23T06:52:19.076Z,12.42
2018-06-23T06:54:47.911Z,12.32
2018-06-23T06:57:16.698Z,12.42
2018-06-23T06:59:45.485Z,12.36
2018-06-23T07:02:14.330Z,12.38
2018-06-23T07:04:43.153Z,12.38
2018-06-23T07:07:11.994Z,12.45
2018-06-23T07:09:40.822Z,12.53
2018-06-23T07:12:09.694Z,12.55
2018-06-23T07:14:38.501Z,12.60
2018-06-23T07:17:07.299Z,12.64
2018-06-23T07:19:36.085Z,12.48
2018-06-23T07:22:04.910Z,12.47
2018-06-23T07:24:33.689Z,12.56
2018-06-23T07:27:02.445Z,12.58
2018-06-23T07:29:31.230Z,12.62
2018-06-23T07:32:00.016Z,12.69
2018-06-23T07:34:28.862Z,12.73
2018-06-23T07:36:57.642Z,12.69
2018-06-23T07:39:26.418Z,12.75
2018-06-23T07:41:55.285Z,12.85
2018-06-23T07:44:24.053Z,13.01
2018-06-23T07:46:52.834Z,13.00
2018-06-23T07:49:21.633Z,13.05
2018-06-23T07:51:50.458Z,13.14
2018-06-23T07:54:19.261Z,13.17
2018-06-23T07:56:48.736Z,13.19
2018-06-23T07:59:17.550Z,13.26
2018-06-23T08:01:46.299Z,13.28
2018-06-23T08:04:15.921Z,13.35
2018-06-23T08:06:44.747Z,13.28
2018-06-23T08:09:13.561Z,13.31
2018-06-23T08:11:42.361Z,13.31
2018-06-23T08:14:11.108Z,13.08
2018-06-23T08:16:39.870Z,13.48
2018-06-23T08:19:08.673Z,13.51
2018-06-23T08:21:37.505Z,13.57
2018-06-23T08:24:07.195Z,13.63
2018-06-23T08:26:36.075Z,13.70
2018-06-23T08:29:04.815Z,13.67
2018-06-23T08:31:33.648Z,13.53
2018-06-23T08:34:02.486Z,13.66
2018-06-23T08:36:31.283Z,13.76
2018-06-23T08:39:00.055Z,13.83
2018-06-23T08:41:28.835Z,13.80
2018-06-23T08:43:57.630Z,13.86
2018-06-23T08:46:26.409Z,13.99
2018-06-23T08:48:55.405Z,14.05
2018-06-23T08:51:24.195Z,14.08
2018-06-23T08:53:52.970Z,14.14
2018-06-23T08:56:21.857Z,14.20
2018-06-23T08:58:50.636Z,14.23
2018-06-23T09:01:19.472Z,14.29
2018-06-23T09:03:48.281Z,14.44
2018-06-23T09:06:17.047Z,14.51
2018-06-23T09:08:45.822Z,14.65
2018-06-23T09:11:14.646Z,14.73
2018-06-23T09:13:43.508Z,14.73
2018-06-23T09:16:12.259Z,14.94
2018-06-23T09:18:41.059Z,14.95
2018-06-23T09:21:09.842Z,14.80
2018-06-23T09:23:38.645Z,14.70
2018-06-23T09:26:07.450Z,14.69
2018-06-23T09:28:36.312Z,14.76
2018-06-23T09:31:05.198Z,14.78
2018-06-23T09:33:34.020Z,14.63
2018-06-23T09:36:02.830Z,14.67
2018-06-23T09:38:31.633Z,14.72
2018-06-23T09:41:00.624Z,14.81
2018-06-23T09:43:29.422Z,14.88
2018-06-23T09:45:58.281Z,14.82
2018-06-23T09:48:27.035Z,14.97
2018-06-23T09:50:56.042Z,15.11
2018-06-23T09:53:24.828Z,15.01
2018-06-23T09:55:53.714Z,14.76
2018-06-23T09:58:22.498Z,15.03
2018-06-23T10:00:51.282Z,15.07
2018-06-23T10:03:20.130Z,15.11
2018-06-23T10:05:48.883Z,15.22
2018-06-23T10:08:17.685Z,15.24
2018-06-23T10:10:46.503Z,15.12
2018-06-23T10:13:15.310Z,15.23
2018-06-23T10:15:44.107Z,15.09
2018-06-23T10:18:12.945Z,15.25
2018-06-23T10:20:41.742Z,15.35
2018-06-23T10:23:10.518Z,15.34
2018-06-23T10:25:39.307Z,15.24
2018-06-23T10:28:08.090Z,15.31
2018-06-23T10:30:36.913Z,15.34
2018-06-23T10:33:05.754Z,15.34
2018-06-23T10:35:34.531Z,15.19
2018-06-23T10:38:03.347Z,15.27
2018-06-23T10:40:32.052Z,15.35
2018-06-23T10:43:00.884Z,15.52
2018-06-23T10:45:29.666Z,15.59
2018-06-23T10:47:58.478Z,15.60
2018-06-23T10:50:27.286Z,15.47
2018-06-23T10:52:56.054Z,15.31
2018-06-23T10:55:24.874Z,15.55
2018-06-23T10:57:53.860Z,15.52
2018-06-23T11:00:22.586Z,15.54
2018-06-23T11:02:51.385Z,15.57
2018-06-23T11:05:20.171Z,15.74
2018-06-23T11:07:48.929Z,15.84
2018-06-23T11:10:17.754Z,15.84
2018-06-23T11:12:46.575Z,15.75
2018-06-23T11:15:15.391Z,15.89
2018-06-23T11:17:44.162Z,15.94
2018-06-23T11:20:13.973Z,15.38
2018-06-23T11:22:43.053Z,15.86
2018-06-23T11:25:11.856Z,15.92
2018-06-23T11:27:40.666Z,16.10
2018-06-23T11:30:09.473Z,16.24
2018-06-23T11:32:38.249Z,16.14
2018-06-23T11:35:07.031Z,16.09
2018-06-23T11:37:35.849Z,15.89
2018-06-23T11:40:04.749Z,15.99
2018-06-23T11:42:33.542Z,16.27
2018-06-23T11:45:02.343Z,16.03
2018-06-23T11:47:31.132Z,16.10
2018-06-23T11:49:59.909Z,16.01
2018-06-23T11:52:28.813Z,16.05
2018-06-23T11:54:57.503Z,16.09
2018-06-23T11:57:26.292Z,16.18
2018-06-23T11:59:55.191Z,16.14
2018-06-23T12:02:23.992Z,16.11
2018-06-23T12:04:52.791Z,16.02
2018-06-23T12:07:21.564Z,15.95
2018-06-23T12:09:50.330Z,15.99
2018-06-23T12:12:19.135Z,16.16
2018-06-23T12:14:47.910Z,16.27
2018-06-23T12:17:16.663Z,16.22
2018-06-23T12:19:45.431Z,16.14
2018-06-23T12:22:14.208Z,16.14
2018-06-23T12:24:42.954Z,16.18
2018-06-23T12:27:11.740Z,16.40
2018-06-23T12:29:40.727Z,16.50
2018-06-23T12:32:09.585Z,16.48
2018-06-23T12:34:38.458Z,16.33
2018-06-23T12:37:07.262Z,16.47
2018-06-23T12:39:36.047Z,16.69
2018-06-23T12:42:04.891Z,16.70
2018-06-23T12:44:33.653Z,16.72
2018-06-23T12:47:02.440Z,16.77
2018-06-23T12:49:31.210Z,16.77
2018-06-23T12:51:59.978Z,16.83
2018-06-23T12:54:28.730Z,16.93
2018-06-23T12:56:57.500Z,16.81
2018-06-23T12:59:26.291Z,16.70
2018-06-23T13:01:55.090Z,16.84
2018-06-23T13:04:23.884Z,16.98
2018-06-23T13:06:52.680Z,16.85
2018-06-23T13:09:21.460Z,16.80
2018-06-23T13:11:50.242Z,16.95
2018-06-23T13:14:19.042Z,16.95
2018-06-23T13:16:47.826Z,16.70
2018-06-23T13:19:16.587Z,16.72
2018-06-23T13:21:45.388Z,16.82
2018-06-23T13:24:14.162Z,16.93
2018-06-23T13:26:42.962Z,17.02
2018-06-23T13:29:11.734Z,16.93
2018-06-23T13:31:40.532Z,16.90
2018-06-23T13:34:09.325Z,16.94
2018-06-23T13:36:38.159Z,16.99
2018-06-23T13:39:08.802Z,17.31
2018-06-23T13:41:37.619Z,17.33
2018-06-23T13:44:06.433Z,17.23
2018-06-23T13:46:35.241Z,17.45
2018-06-23T13:49:04.059Z,17.47
2018-06-23T13:51:32.859Z,17.31
2018-06-23T13:54:01.691Z,17.23
2018-06-23T13:56:30.474Z,17.40
2018-06-23T13:58:59.278Z,17.47
2018-06-23T14:01:28.061Z,17.47
2018-06-23T14:03:56.844Z,17.47
2018-06-23T14:06:25.646Z,17.40
2018-06-23T14:08:54.458Z,17.51
2018-06-23T14:11:23.240Z,17.56
2018-06-23T14:13:51.997Z,17.59
2018-06-23T14:16:20.820Z,17.55
2018-06-23T14:18:49.616Z,17.58
2018-06-23T14:21:18.381Z,17.66
2018-06-23T14:23:47.175Z,17.65
2018-06-23T14:26:15.969Z,17.70
2018-06-23T14:28:44.725Z,17.61
2018-06-23T14:31:13.641Z,17.68
2018-06-23T14:33:42.447Z,17.66
2018-06-23T14:36:11.250Z,17.72
2018-06-23T14:38:40.015Z,17.62
2018-06-23T14:41:08.937Z,17.83
2018-06-23T14:43:37.782Z,17.81
2018-06-23T14:46:06.706Z,17.84
2018-06-23T14:48:35.649Z,17.72
2018-06-23T14:51:04.473Z,17.52
2018-06-23T14:53:33.310Z,17.59
2018-06-23T14:56:02.142Z,17.43
2018-06-23T14:58:30.975Z,17.48
2018-06-23T15:00:59.777Z,17.57
2018-06-23T15:03:28.606Z,17.67
2018-06-23T15:05:57.450Z,17.62
2018-06-23T15:08:37.324Z,17.52
2018-06-23T15:11:17.219Z,17.61
2018-06-23T15:13:46.027Z,17.64
2018-06-23T15:16:14.823Z,17.65
2018-06-23T15:18:43.618Z,17.68
2018-06-23T15:21:12.429Z,17.66
2018-06-23T15:23:41.354Z,17.50
2018-06-23T15:26:10.178Z,17.45
2018-06-23T15:28:39.081Z,17.57
2018-06-23T15:31:07.885Z,17.57
2018-06-23T15:33:36.677Z,17.75
2018-06-23T15:36:05.788Z,17.68
2018-06-23T15:38:34.608Z,17.60
2018-06-23T15:41:03.417Z,17.68
2018-06-23T15:43:32.173Z,17.68
2018-06-23T15:46:00.999Z,17.74
2018-06-23T15:48:29.930Z,17.67
2018-06-23T15:50:58.746Z,17.70
2018-06-23T15:53:27.547Z,17.65
2018-06-23T15:55:56.375Z,17.54
2018-06-23T15:58:25.474Z,17.50
2018-06-23T16:00:54.293Z,17.43
2018-06-23T16:03:23.122Z,17.49
2018-06-23T16:05:51.960Z,17.57
2018-06-23T16:08:20.781Z,17.53
2018-06-23T16:10:49.577Z,17.42
2018-06-23T16:13:18.441Z,17.39
2018-06-23T16:15:47.285Z,17.40
2018-06-23T16:18:16.138Z,17.41
2018-06-23T16:20:44.989Z,17.37
2018-06-23T16:23:13.862Z,17.30
2018-06-23T16:25:42.676Z,17.34
2018-06-23T16:28:11.450Z,17.39
2018-06-23T16:30:40.264Z,17.38
2018-06-23T16:33:09.083Z,17.16
2018-06-23T16:35:37.917Z,17.25
2018-06-23T16:38:06.718Z,17.29
2018-06-23T16:40:35.593Z,17.17
2018-06-23T16:43:04.479Z,17.27
2018-06-23T16:45:33.291Z,17.32
2018-06-23T16:48:02.189Z,17.29
2018-06-23T16:50:30.978Z,17.26
2018-06-23T16:52:59.800Z,17.21
2018-06-23T16:55:28.589Z,16.96
2018-06-23T16:57:57.390Z,16.69
2018-06-23T17:00:26.184Z,16.69
2018-06-23T17:02:54.975Z,16.78
2018-06-23T17:05:23.762Z,16.84
2018-06-23T17:07:52.555Z,16.94
2018-06-23T17:10:21.316Z,17.02
2018-06-23T17:12:50.112Z,17.00
2018-06-23T17:15:18.917Z,17.05
2018-06-23T17:17:47.728Z,16.96
2018-06-23T17:20:16.548Z,16.85
2018-06-23T17:22:45.373Z,16.84
2018-06-23T17:25:14.201Z,16.72
2018-06-23T17:27:43.002Z,16.66
2018-06-23T17:30:11.774Z,16.60
2018-06-23T17:32:40.574Z,16.68
2018-06-23T17:35:09.334Z,16.57
2018-06-23T17:37:38.112Z,16.48
2018-06-23T17:40:06.907Z,16.49
2018-06-23T17:42:35.689Z,16.59
2018-06-23T17:45:05.055Z,16.48
2018-06-23T17:47:33.861Z,16.50
2018-06-23T17:50:02.680Z,16.55
2018-06-23T17:52:31.443Z,16.65
2018-06-23T17:55:00.245Z,16.60
2018-06-23T17:57:29.091Z,16.68
2018-06-23T17:59:57.861Z,16.71
2018-06-23T18:02:27.013Z,16.66
2018-06-23T18:04:55.777Z,16.65
2018-06-23T18:07:24.539Z,16.75
2018-06-23T18:09:53.297Z,16.75
2018-06-23T18:12:22.069Z,16.79
2018-06-23T18:14:50.879Z,16.80
2018-06-23T18:17:19.745Z,16.77
2018-06-23T18:19:48.517Z,16.88
2018-06-23T18:22:17.294Z,16.83
2018-06-23T18:24:46.056Z,16.85
2018-06-23T18:27:14.847Z,16.80
2018-06-23T18:29:43.635Z,16.81
2018-06-23T18:32:12.393Z,16.81
2018-06-23T18:34:41.167Z,16.85
2018-06-23T18:37:10.046Z,16.84
2018-06-23T18:39:38.848Z,16.78
2018-06-23T18:42:07.650Z,16.68
2018-06-23T18:44:36.437Z,16.68
2018-06-23T18:47:05.318Z,16.62
2018-06-23T18:49:34.110Z,16.51
2018-06-23T18:52:02.984Z,16.67
2018-06-23T18:54:31.896Z,16.66
2018-06-23T18:57:00.783Z,16.73
2018-06-23T18:59:30.202Z,16.77
2018-06-23T19:01:59.079Z,16.67
2018-06-23T19:04:27.954Z,16.76
2018-06-23T19:06:56.867Z,16.49
2018-06-23T19:09:25.877Z,16.56
2018-06-23T19:11:54.697Z,16.58
2018-06-23T19:14:23.566Z,16.57
2018-06-23T19:16:52.583Z,16.66
2018-06-23T19:19:21.602Z,16.55
2018-06-23T19:21:50.479Z,16.71
2018-06-23T19:24:19.321Z,16.69
2018-06-23T19:26:48.202Z,16.68
2018-06-23T19:29:17.085Z,16.46
2018-06-23T19:31:46.006Z,16.56
2018-06-23T19:34:14.874Z,16.33
2018-06-23T19:36:44.334Z,16.34
2018-06-23T19:39:13.203Z,16.17
2018-06-23T19:41:42.020Z,16.37
2018-06-23T19:44:11.519Z,16.37
2018-06-23T19:46:40.380Z,16.41
2018-06-23T19:49:09.261Z,16.40
2018-06-23T19:51:38.128Z,16.47
2018-06-23T19:54:06.958Z,16.41
2018-06-23T19:56:35.808Z,16.37
2018-06-23T20:02:38.184Z,16.49
2018-06-23T20:05:31.014Z,16.44
2018-06-23T20:08:14.885Z,16.25
2018-06-23T20:10:43.678Z,16.14
2018-06-23T20:13:12.541Z,16.01
2018-06-23T20:15:41.402Z,15.93
2018-06-23T20:18:10.330Z,15.99
2018-06-23T20:20:39.143Z,15.83
2018-06-23T20:23:07.966Z,15.95
2018-06-23T20:25:36.914Z,15.76
2018-06-23T20:28:05.749Z,15.84
2018-06-23T20:30:34.592Z,15.84
2018-06-23T20:33:03.496Z,15.79
2018-06-23T20:35:32.302Z,16.02
2018-06-23T20:38:01.153Z,15.97
2018-06-23T20:40:30.941Z,15.80
2018-06-23T20:42:59.797Z,15.77
2018-06-23T20:45:28.634Z,15.57
2018-06-23T20:47:57.482Z,15.46
2018-06-23T20:50:26.397Z,15.45
2018-06-23T20:52:55.253Z,15.58
2018-06-23T20:55:24.183Z,15.59
2018-06-23T20:57:53.217Z,15.37
2018-06-23T21:00:22.442Z,15.38
2018-06-23T21:02:51.286Z,15.41
2018-06-23T21:05:20.140Z,15.35
2018-06-23T21:07:48.942Z,15.52
2018-06-23T21:10:28.807Z,15.45
2018-06-23T21:12:57.663Z,15.32
2018-06-23T21:15:26.457Z,15.37
2018-06-23T21:17:55.492Z,15.38
2018-06-23T21:20:24.477Z,15.24
2018-06-23T21:22:53.283Z,15.13
2018-06-23T21:25:22.086Z,15.07
2018-06-23T21:27:50.921Z,15.07
2018-06-23T21:30:19.722Z,15.04
2018-06-23T21:32:48.501Z,14.84
2018-06-23T21:35:17.300Z,14.88
2018-06-23T21:37:46.143Z,14.93
2018-06-23T21:40:15.026Z,14.96
2018-06-23T21:42:43.770Z,14.70
2018-06-23T21:45:12.645Z,14.51
2018-06-23T21:47:41.450Z,14.42
2018-06-23T21:50:10.360Z,14.47
2018-06-23T21:52:39.433Z,14.65
2018-06-23T21:55:08.405Z,14.61
2018-06-23T21:57:37.234Z,14.76
2018-06-23T22:00:11.759Z,14.79
2018-06-23T22:02:40.550Z,14.64
2018-06-23T22:05:09.381Z,14.53
2018-06-23T22:07:38.187Z,14.62
2018-06-23T22:10:07.314Z,14.64
2018-06-23T22:12:36.138Z,14.69
2018-06-23T22:15:05.031Z,14.48
2018-06-23T22:17:33.888Z,14.58
2018-06-23T22:20:02.684Z,14.38
2018-06-23T22:22:33.265Z,14.18
2018-06-23T22:25:02.051Z,14.02
2018-06-23T22:27:30.842Z,13.87
2018-06-23T22:29:59.669Z,13.86
2018-06-23T22:32:28.471Z,13.73
2018-06-23T22:34:57.270Z,13.75
2018-06-23T22:37:26.068Z,13.61
2018-06-23T22:39:54.896Z,13.61
2018-06-23T22:42:23.699Z,13.55
2018-06-23T22:44:52.495Z,13.61
2018-06-23T22:47:21.272Z,13.55
2018-06-23T22:49:50.113Z,13.47
2018-06-23T22:52:18.946Z,13.73
2018-06-23T22:54:48.118Z,13.45
2018-06-23T22:57:16.953Z,13.43
2018-06-23T22:59:45.819Z,13.43
2018-06-23T23:02:14.614Z,13.72
2018-06-23T23:04:43.406Z,13.73
2018-06-23T23:07:12.232Z,13.66
2018-06-23T23:09:41.060Z,13.73
2018-06-23T23:12:09.848Z,13.84
2018-06-23T23:14:38.665Z,13.87
2018-06-23T23:17:07.594Z,13.35
2018-06-23T23:19:36.406Z,13.13
2018-06-23T23:22:05.218Z,13.03
2018-06-23T23:24:34.102Z,12.85
2018-06-23T23:27:02.934Z,13.24
2018-06-23T23:29:31.901Z,13.22
2018-06-23T23:32:00.670Z,13.07
2018-06-23T23:34:29.466Z,13.06
2018-06-23T23:36:58.230Z,13.02
2018-06-23T23:39:27.057Z,13.18
2018-06-23T23:41:55.826Z,13.17
2018-06-23T23:44:24.645Z,13.38
2018-06-23T23:46:53.570Z,13.36
2018-06-23T23:49:22.383Z,13.34
2018-06-23T23:51:51.230Z,13.18
2018-06-23T23:54:20.015Z,13.25
2018-06-23T23:56:48.847Z,13.24
2018-06-23T23:59:17.658Z,13.14
